Time;durP1;ratioP1;P1;durP2;ratioP2;P2;SDS_P1;SDS_P2;PMS_P1;PMS_P2;Temp;Humidity;BMP_temperature;BMP_pressure;BME280_temperature;BME280_humidity;BME280_pressure;Samples;Min_cycle;Max_cycle;Signal;HPM_P1;HPM_P2
2023/09/22 00:02:10;;;;;;;8.25;4.53;;;23.70;95.70;;;;;;4860995;29;20129;-82
2023/09/22 00:04:37;;;;;;;7.78;4.57;;;23.80;95.70;;;;;;4860790;29;20053;-81
2023/09/22 00:07:02;;;;;;;8.13;4.63;;;23.70;95.60;;;;;;4861041;29;20034;-81
2023/09/22 00:09:28;;;;;;;5.80;4.45;;;23.70;95.60;;;;;;4859762;29;20030;-81
2023/09/22 00:11:54;;;;;;;10.52;5.22;;;23.70;95.60;;;;;;4860781;29;20053;-81
2023/09/22 00:14:20;;;;;;;9.77;4.90;;;23.70;95.60;;;;;;4860716;29;20478;-80
2023/09/22 00:16:45;;;;;;;9.02;5.32;;;23.70;95.60;;;;;;4861025;29;20100;-81
2023/09/22 00:19:11;;;;;;;11.90;5.55;;;23.70;95.60;;;;;;4859796;29;20041;-81
2023/09/22 00:21:37;;;;;;;7.60;5.00;;;23.70;95.70;;;;;;4860744;29;20482;-81
2023/09/22 00:24:03;;;;;;;7.70;4.78;;;23.70;95.70;;;;;;4860918;29;20038;-81
2023/09/22 00:26:29;;;;;;;7.53;5.07;;;23.70;95.70;;;;;;4843816;29;20029;-81
2023/09/22 00:28:56;;;;;;;7.57;5.30;;;23.70;95.70;;;;;;4860653;29;20033;-82
2023/09/22 00:31:22;;;;;;;11.20;5.63;;;23.70;95.60;;;;;;4859352;29;20479;-81
2023/09/22 00:33:48;;;;;;;7.80;5.03;;;23.80;95.60;;;;;;4860545;29;20047;-82
2023/09/22 00:36:14;;;;;;;9.60;5.43;;;23.70;95.60;;;;;;4860571;29;20026;-79
2023/09/22 00:38:41;;;;;;;9.65;5.38;;;23.70;95.70;;;;;;4860638;29;20044;-79
2023/09/22 00:41:07;;;;;;;10.35;5.80;;;23.70;95.70;;;;;;4859119;29;20036;-79
2023/09/22 00:43:33;;;;;;;8.55;5.38;;;23.70;95.70;;;;;;4860838;29;20030;-79
2023/09/22 00:45:59;;;;;;;10.88;5.47;;;23.70;95.70;;;;;;4859783;29;20081;-80
2023/09/22 00:48:30;;;;;;;8.55;5.10;;;23.60;95.70;;;;;;4860310;29;20108;-80
2023/09/22 00:50:57;;;;;;;9.35;5.63;;;23.70;95.80;;;;;;4858706;29;20044;-80
2023/09/22 00:53:31;;;;;;;10.43;4.68;;;23.60;95.80;;;;;;4860798;29;20181;-89
2023/09/22 00:55:57;;;;;;;10.32;5.90;;;23.70;95.80;;;;;;4860639;29;20062;-88
2023/09/22 00:58:23;;;;;;;11.38;5.20;;;23.60;95.80;;;;;;4843963;29;20387;-87
2023/09/22 01:00:49;;;;;;;6.15;4.57;;;23.60;95.80;;;;;;4859401;29;20036;-87
2023/09/22 01:03:16;;;;;;;8.80;5.55;;;23.60;95.80;;;;;;4860746;29;20482;-85
2023/09/22 01:05:42;;;;;;;7.00;4.35;;;23.60;95.80;;;;;;4859996;29;20037;-85
2023/09/22 01:08:08;;;;;;;7.60;4.60;;;23.60;95.90;;;;;;4859539;29;20037;-87
2023/09/22 01:10:38;;;;;;;6.63;4.35;;;23.60;95.90;;;;;;4850671;29;20033;-89
2023/09/22 01:13:05;;;;;;;16.70;5.38;;;23.50;95.90;;;;;;4860122;29;20452;-89
2023/09/22 01:15:34;;;;;;;9.95;5.35;;;23.50;96.00;;;;;;4860800;29;20037;-90
2023/09/22 01:18:00;;;;;;;8.37;4.27;;;23.50;96.00;;;;;;4861074;29;20065;-89
2023/09/22 01:20:26;;;;;;;8.40;5.10;;;23.50;96.10;;;;;;4860462;29;20513;-91
2023/09/22 01:22:52;;;;;;;8.80;4.93;;;23.50;96.10;;;;;;4860398;29;20044;-92
2023/09/22 01:25:18;;;;;;;9.85;5.00;;;23.40;96.30;;;;;;4860625;29;20018;-89
2023/09/22 01:27:43;;;;;;;9.18;5.82;;;23.40;96.10;;;;;;4860604;29;20419;-89
2023/09/22 01:30:09;;;;;;;11.23;4.90;;;23.40;96.10;;;;;;4859646;29;20025;-89
2023/09/22 01:32:38;;;;;;;9.95;4.55;;;23.40;96.20;;;;;;4860388;29;20029;-89
2023/09/22 01:35:07;;;;;;;8.38;4.28;;;23.40;96.20;;;;;;4860221;29;20094;-88
2023/09/22 01:37:36;;;;;;;7.43;4.95;;;23.40;96.20;;;;;;4860585;29;20038;-88
2023/09/22 01:40:02;;;;;;;7.45;4.28;;;23.40;96.20;;;;;;4859917;29;20033;-89
2023/09/22 01:42:28;;;;;;;6.60;4.50;;;23.40;96.30;;;;;;4858954;29;20041;-88
2023/09/22 01:44:54;;;;;;;11.35;4.88;;;23.40;96.40;;;;;;4860339;29;20018;-89
2023/09/22 01:47:20;;;;;;;9.32;4.75;;;23.40;96.40;;;;;;4860628;29;20112;-91
2023/09/22 01:49:45;;;;;;;8.82;4.60;;;23.40;96.50;;;;;;4857499;29;20026;-91
2023/09/22 01:52:11;;;;;;;9.20;4.68;;;23.40;96.50;;;;;;4855315;29;20068;-83
2023/09/22 01:54:37;;;;;;;10.32;4.90;;;23.40;96.50;;;;;;4859100;29;20079;-83
2023/09/22 01:57:03;;;;;;;10.10;5.32;;;23.40;96.60;;;;;;4859395;29;20057;-81
2023/09/22 01:59:29;;;;;;;9.38;5.15;;;23.40;96.60;;;;;;4861798;29;20104;-80
2023/09/22 02:01:54;;;;;;;8.75;4.28;;;23.40;96.60;;;;;;4862128;29;20522;-81
2023/09/22 02:04:20;;;;;;;5.85;3.90;;;23.30;96.60;;;;;;4862220;29;20566;-81
2023/09/22 02:06:46;;;;;;;9.35;4.30;;;23.40;96.60;;;;;;4847381;29;20057;-82
2023/09/22 02:09:11;;;;;;;8.65;5.13;;;23.40;96.60;;;;;;4862449;29;20034;-82
2023/09/22 02:11:37;;;;;;;15.05;5.47;;;23.30;96.60;;;;;;4861774;29;20410;-81
2023/09/22 02:14:03;;;;;;;8.60;4.38;;;23.30;96.60;;;;;;4862924;29;20460;-82
2023/09/22 02:16:29;;;;;;;7.80;4.68;;;23.30;96.70;;;;;;4862695;29;20036;-82
2023/09/22 02:18:56;;;;;;;8.00;4.50;;;23.30;96.70;;;;;;4862306;29;20033;-83
2023/09/22 02:21:22;;;;;;;9.77;4.78;;;23.30;96.70;;;;;;4862082;29;20030;-83
2023/09/22 02:23:48;;;;;;;8.73;4.50;;;23.30;96.70;;;;;;4861770;29;20086;-82
2023/09/22 02:26:13;;;;;;;6.90;4.20;;;23.30;96.70;;;;;;4862342;29;20025;-82
2023/09/22 02:28:39;;;;;;;10.82;4.22;;;23.30;96.70;;;;;;4861948;29;20037;-82
2023/09/22 02:31:05;;;;;;;6.45;4.70;;;23.20;96.70;;;;;;4861871;29;20094;-81
2023/09/22 02:33:31;;;;;;;8.90;4.45;;;23.30;96.70;;;;;;4862677;29;20427;-81
2023/09/22 02:35:59;;;;;;;7.03;4.00;;;23.30;96.70;;;;;;4845563;29;20061;-80
2023/09/22 02:38:25;;;;;;;7.53;4.45;;;23.20;96.70;;;;;;4862610;29;20049;-81
2023/09/22 02:40:51;;;;;;;9.85;5.10;;;23.20;96.70;;;;;;4860229;29;20112;-82
2023/09/22 02:43:16;;;;;;;8.30;4.22;;;23.20;96.70;;;;;;4862658;29;20104;-82
2023/09/22 02:45:42;;;;;;;10.13;4.13;;;23.20;96.80;;;;;;4862181;29;20022;-82
2023/09/22 02:48:08;;;;;;;5.63;3.72;;;23.20;96.80;;;;;;4862700;29;20065;-82
2023/09/22 02:50:34;;;;;;;6.88;3.50;;;23.20;96.80;;;;;;4860806;29;20061;-81
2023/09/22 02:53:04;;;;;;;6.95;3.75;;;23.20;96.80;;;;;;4861487;29;20428;-81
2023/09/22 02:55:37;;;;;;;8.35;4.53;;;23.20;96.90;;;;;;4861765;29;20533;-81
2023/09/22 02:58:03;;;;;;;6.22;3.42;;;23.20;96.90;;;;;;4862633;29;20487;-82
2023/09/22 03:00:28;;;;;;;7.15;4.18;;;23.20;96.90;;;;;;4860852;29;20510;-80
2023/09/22 03:02:54;;;;;;;6.45;3.97;;;23.20;96.90;;;;;;4862371;29;20072;-81
2023/09/22 03:05:20;;;;;;;5.32;3.80;;;23.20;96.90;;;;;;4862207;29;20041;-81
2023/09/22 03:07:50;;;;;;;7.03;4.13;;;23.10;96.90;;;;;;4861511;29;20030;-81
2023/09/22 03:10:16;;;;;;;6.15;4.05;;;23.10;96.90;;;;;;4859564;29;20037;-81
2023/09/22 03:12:42;;;;;;;7.50;3.92;;;23.10;96.90;;;;;;4862158;29;20057;-81
2023/09/22 03:15:12;;;;;;;6.68;4.53;;;23.10;96.80;;;;;;4845425;29;20352;-81
2023/09/22 03:17:39;;;;;;;7.22;4.20;;;23.10;96.80;;;;;;4862253;29;20033;-81
2023/09/22 03:20:12;;;;;;;9.25;4.15;;;23.10;96.80;;;;;;4858739;29;20029;-82
2023/09/22 03:22:38;;;;;;;7.53;4.45;;;23.10;96.80;;;;;;4861528;29;20044;-83
2023/09/22 03:25:05;;;;;;;6.78;3.92;;;23.10;96.80;;;;;;4861450;29;20037;-82
2023/09/22 03:27:35;;;;;;;5.95;3.70;;;23.10;96.80;;;;;;4861440;29;20054;-81
2023/09/22 03:30:11;;;;;;;7.70;3.88;;;23.00;96.80;;;;;;4859696;29;20053;-82
2023/09/22 03:32:38;;;;;;;8.57;4.00;;;23.00;96.70;;;;;;4844987;29;20070;-82
2023/09/22 03:35:06;;;;;;;6.63;4.20;;;23.00;96.70;;;;;;4861707;29;20036;-82
2023/09/22 03:37:32;;;;;;;8.68;4.18;;;23.00;96.70;;;;;;4861361;29;20037;-81
2023/09/22 03:40:09;;;;;;;8.10;4.13;;;23.00;96.70;;;;;;4860195;29;20068;-80
2023/09/22 03:42:35;;;;;;;9.27;4.22;;;23.00;96.70;;;;;;4861159;29;20120;-79
2023/09/22 03:45:00;;;;;;;9.32;4.68;;;23.00;96.60;;;;;;4861241;29;20549;-79
2023/09/22 03:47:27;;;;;;;9.38;4.18;;;23.00;96.70;;;;;;4860892;29;20539;-79
2023/09/22 03:49:52;;;;;;;10.55;4.40;;;22.90;96.60;;;;;;4843146;29;20112;-80
2023/09/22 03:52:18;;;;;;;5.50;3.92;;;22.90;96.60;;;;;;4861317;29;20120;-80
2023/09/22 03:54:44;;;;;;;4.80;3.95;;;22.80;96.60;;;;;;4844338;29;20437;-80
2023/09/22 03:57:10;;;;;;;8.50;4.60;;;22.80;96.70;;;;;;4860838;29;20061;-79
2023/09/22 03:59:35;;;;;;;7.70;4.35;;;22.80;96.70;;;;;;4860370;29;20116;-80
2023/09/22 04:02:01;;;;;;;10.20;5.20;;;22.80;96.70;;;;;;4859448;29;20428;-79
2023/09/22 04:04:30;;;;;;;8.68;4.82;;;22.80;96.70;;;;;;4860970;29;20034;-79
2023/09/22 04:06:57;;;;;;;7.57;4.60;;;22.90;96.70;;;;;;4861390;29;20448;-79
2023/09/22 04:09:23;;;;;;;8.05;4.60;;;22.80;96.60;;;;;;4860726;29;20542;-76
2023/09/22 04:11:49;;;;;;;9.48;4.18;;;22.80;96.60;;;;;;4859642;29;20137;-77
2023/09/22 04:14:15;;;;;;;9.45;6.35;;;22.80;96.60;;;;;;4843615;29;20025;-77
2023/09/22 04:16:41;;;;;;;7.35;5.18;;;22.80;96.50;;;;;;4860504;29;20033;-78
2023/09/22 04:19:09;;;;;;;8.23;5.20;;;22.80;96.60;;;;;;4859684;29;20032;-77
2023/09/22 04:21:42;;;;;;;10.55;5.57;;;22.80;96.60;;;;;;4859076;29;20487;-78
2023/09/22 04:24:09;;;;;;;9.68;4.80;;;22.70;96.60;;;;;;4860161;29;20034;-81
2023/09/22 04:26:42;;;;;;;10.63;4.82;;;22.70;96.60;;;;;;4860780;29;20074;-81
2023/09/22 04:29:09;;;;;;;7.75;4.85;;;22.60;96.60;;;;;;4860129;29;20383;-82
2023/09/22 04:31:35;;;;;;;9.60;5.00;;;22.60;96.70;;;;;;4858529;29;20430;-82
2023/09/22 04:34:01;;;;;;;7.13;5.03;;;22.60;96.70;;;;;;4860027;29;20038;-81
2023/09/22 04:36:27;;;;;;;9.63;5.20;;;22.60;96.70;;;;;;4839372;29;20048;-81
2023/09/22 04:38:52;;;;;;;12.15;5.90;;;22.60;96.70;;;;;;4853807;29;20042;-81
2023/09/22 04:41:19;;;;;;;7.35;5.25;;;22.60;96.70;;;;;;4852289;29;20089;-81
2023/09/22 04:43:46;;;;;;;8.27;4.75;;;22.60;96.70;;;;;;4856640;29;20029;-82
2023/09/22 04:46:12;;;;;;;8.02;5.68;;;22.60;96.70;;;;;;4837212;29;20044;-83
2023/09/22 04:48:38;;;;;;;9.05;5.85;;;22.60;96.70;;;;;;4857694;29;20025;-82
2023/09/22 04:51:06;;;;;;;8.27;5.25;;;22.60;96.80;;;;;;4856264;29;20038;-83
2023/09/22 04:53:33;;;;;;;10.38;5.07;;;22.60;96.80;;;;;;4859571;29;20038;-83
2023/09/22 04:56:03;;;;;;;12.65;6.60;;;22.60;96.80;;;;;;4860525;29;20034;-83
2023/09/22 04:58:30;;;;;;;6.82;5.00;;;22.60;96.70;;;;;;4859009;29;20692;-83
2023/09/22 05:00:58;;;;;;;8.02;5.10;;;22.60;96.70;;;;;;4858703;29;20025;-81
2023/09/22 05:03:26;;;;;;;8.07;4.95;;;22.50;96.80;;;;;;4859799;29;20033;-82
2023/09/22 05:05:53;;;;;;;10.15;5.45;;;22.60;96.80;;;;;;4854763;29;20178;-80
2023/09/22 05:08:20;;;;;;;7.55;5.20;;;22.50;96.80;;;;;;4838740;29;20033;-83
2023/09/22 05:10:48;;;;;;;9.15;5.00;;;22.60;96.80;;;;;;4841589;29;20041;-77
2023/09/22 05:13:18;;;;;;;9.63;4.90;;;22.60;96.80;;;;;;4853987;29;20049;-78
2023/09/22 05:15:45;;;;;;;6.60;4.60;;;22.60;96.80;;;;;;4846659;29;20041;-78
2023/09/22 05:18:13;;;;;;;7.40;4.60;;;22.60;96.80;;;;;;4855007;29;20145;-78
2023/09/22 05:20:40;;;;;;;8.52;4.55;;;22.60;96.80;;;;;;4839038;29;20087;-87
2023/09/22 05:23:06;;;;;;;9.82;5.05;;;22.60;96.80;;;;;;4829563;29;20036;-87
2023/09/22 05:25:33;;;;;;;6.05;4.22;;;22.60;96.80;;;;;;4841608;29;20132;-87
2023/09/22 05:27:59;;;;;;;8.15;5.13;;;22.60;96.80;;;;;;4840622;29;20030;-87
2023/09/22 05:30:25;;;;;;;6.28;4.38;;;22.60;96.90;;;;;;4835055;29;20034;-78
2023/09/22 05:32:52;;;;;;;13.35;6.93;;;22.50;96.90;;;;;;4857660;29;20021;-78
2023/09/22 05:35:17;;;;;;;14.77;7.90;;;22.50;97.00;;;;;;4846776;29;20048;-88
2023/09/22 05:37:43;;;;;;;9.07;5.20;;;22.40;97.10;;;;;;4863275;29;20025;-79
2023/09/22 05:40:12;;;;;;;6.93;4.25;;;22.30;97.20;;;;;;4862537;29;20108;-79
2023/09/22 05:42:39;;;;;;;7.93;4.93;;;22.30;97.30;;;;;;4861263;29;20037;-78
2023/09/22 05:45:05;;;;;;;8.93;4.57;;;22.30;97.30;;;;;;4859540;29;20037;-79
2023/09/22 05:47:34;;;;;;;9.00;4.38;;;22.30;97.40;;;;;;4861113;29;20470;-86
2023/09/22 05:50:02;;;;;;;8.23;4.67;;;22.40;97.30;;;;;;4845960;29;20045;-79
2023/09/22 05:52:28;;;;;;;6.65;4.63;;;22.40;97.20;;;;;;4854060;29;20112;-79
2023/09/22 05:54:54;;;;;;;9.32;6.70;;;22.40;97.30;;;;;;4861962;29;20086;-79
2023/09/22 05:57:19;;;;;;;8.40;5.03;;;22.30;97.40;;;;;;4859046;29;20037;-80
2023/09/22 05:59:46;;;;;;;13.32;7.93;;;22.30;97.70;;;;;;4854762;29;20046;-79
2023/09/22 06:02:12;;;;;;;8.25;5.32;;;22.10;98.00;;;;;;4861357;29;20041;-79
2023/09/22 06:04:38;;;;;;;6.10;4.32;;;22.10;98.20;;;;;;4863863;29;20086;-79
2023/09/22 06:07:04;;;;;;;7.60;4.30;;;22.10;98.20;;;;;;4863611;29;20126;-79
2023/09/22 06:09:31;;;;;;;12.93;4.10;;;22.30;98.20;;;;;;4863659;29;20022;-79
2023/09/22 06:11:58;;;;;;;11.05;6.28;;;22.30;98.10;;;;;;4863162;29;20042;-79
2023/09/22 06:14:24;;;;;;;6.15;3.70;;;22.40;98.00;;;;;;4863670;29;20029;-79
2023/09/22 06:16:50;;;;;;;15.02;3.92;;;22.50;98.00;;;;;;4863488;29;20044;-79
2023/09/22 06:19:16;;;;;;;4.97;3.60;;;22.60;97.90;;;;;;4863164;29;20037;-80
2023/09/22 06:21:43;;;;;;;5.78;4.15;;;22.60;97.70;;;;;;4862871;29;20041;-79
2023/09/22 06:24:09;;;;;;;11.32;4.25;;;22.60;97.70;;;;;;4863201;29;20030;-79
2023/09/22 06:26:34;;;;;;;8.50;3.47;;;22.70;97.70;;;;;;4861424;29;20030;-79
2023/09/22 06:29:00;;;;;;;7.40;3.45;;;22.70;97.60;;;;;;4862272;29;20037;-79
2023/09/22 06:31:26;;;;;;;9.40;4.72;;;22.80;97.60;;;;;;4860357;29;20048;-79
2023/09/22 06:33:52;;;;;;;6.18;4.10;;;22.90;97.60;;;;;;4862365;29;20034;-79
2023/09/22 06:36:17;;;;;;;6.90;4.30;;;22.90;97.50;;;;;;4862896;29;20080;-79
2023/09/22 06:38:43;;;;;;;7.07;3.88;;;22.90;97.40;;;;;;4862890;29;20479;-79
2023/09/22 06:41:18;;;;;;;6.38;3.10;;;23.00;97.30;;;;;;4862472;29;20038;-79
2023/09/22 06:43:45;;;;;;;6.57;3.78;;;23.10;97.30;;;;;;4862607;29;20029;-79
2023/09/22 06:46:11;;;;;;;5.95;3.60;;;23.10;97.20;;;;;;4862498;29;20091;-79
2023/09/22 06:48:36;;;;;;;5.22;3.47;;;23.10;97.10;;;;;;4862911;29;20026;-79
2023/09/22 06:51:02;;;;;;;7.60;4.18;;;23.20;97.20;;;;;;4862563;29;20028;-79
2023/09/22 06:53:29;;;;;;;8.63;4.80;;;23.20;97.10;;;;;;4862577;29;20061;-79
2023/09/22 06:56:06;;;;;;;4.80;3.60;;;23.20;97.10;;;;;;4862632;29;20036;-79
2023/09/22 06:58:34;;;;;;;4.47;3.22;;;23.20;97.20;;;;;;4862626;29;20029;-79
2023/09/22 07:01:13;;;;;;;8.73;4.30;;;23.20;97.20;;;;;;4862090;29;20109;-80
2023/09/22 07:03:40;;;;;;;7.15;4.10;;;23.20;97.20;;;;;;4861681;29;20034;-79
2023/09/22 07:06:10;;;;;;;8.05;3.65;;;23.20;97.20;;;;;;4862669;29;20025;-79
2023/09/22 07:08:39;;;;;;;6.38;3.47;;;23.30;97.20;;;;;;4862841;29;20030;-79
2023/09/22 07:11:10;;;;;;;6.47;3.67;;;23.30;97.10;;;;;;4862365;29;20383;-79
2023/09/22 07:13:37;;;;;;;6.40;3.42;;;23.40;97.10;;;;;;4862152;29;20469;-79
2023/09/22 07:16:03;;;;;;;7.85;4.18;;;23.40;97.20;;;;;;4862284;29;20029;-79
2023/09/22 07:18:29;;;;;;;10.45;5.38;;;23.40;97.30;;;;;;4862109;29;20037;-79
2023/09/22 07:20:55;;;;;;;5.30;3.58;;;23.40;97.30;;;;;;4862122;29;20022;-79
2023/09/22 07:23:22;;;;;;;4.82;3.17;;;23.40;97.40;;;;;;4845303;29;20064;-79
2023/09/22 07:26:11;;;;;;;7.05;3.10;;;23.40;97.40;;;;;;4861613;29;20109;-79
2023/09/22 07:28:37;;;;;;;4.57;3.03;;;23.50;97.40;;;;;;4862002;29;20113;-79
2023/09/22 07:31:11;;;;;;;6.75;3.38;;;23.50;97.40;;;;;;4861739;29;20035;-79
2023/09/22 07:33:37;;;;;;;5.78;3.58;;;23.60;97.30;;;;;;4861615;29;20025;-79
2023/09/22 07:36:02;;;;;;;7.35;3.17;;;23.70;97.20;;;;;;4861689;29;20390;-79
2023/09/22 07:38:29;;;;;;;5.95;3.13;;;23.70;97.10;;;;;;4860975;29;20101;-79
2023/09/22 07:40:55;;;;;;;4.63;2.85;;;23.80;97.10;;;;;;4861905;29;20029;-79
2023/09/22 07:43:28;;;;;;;5.22;3.05;;;23.90;97.00;;;;;;4861598;29;20493;-79
2023/09/22 07:45:54;;;;;;;5.80;3.05;;;24.00;97.00;;;;;;4861671;29;20028;-79
2023/09/22 07:48:19;;;;;;;7.57;4.10;;;24.10;96.90;;;;;;4860376;29;20030;-79
2023/09/22 07:50:45;;;;;;;6.30;3.40;;;24.10;96.60;;;;;;4860784;29;20065;-83
2023/09/22 07:53:12;;;;;;;11.38;4.60;;;24.10;96.40;;;;;;4861215;29;20101;-85
2023/09/22 07:55:41;;;;;;;7.43;3.90;;;24.10;96.40;;;;;;4847600;29;20610;-87
2023/09/22 07:58:09;;;;;;;6.07;3.42;;;24.20;96.40;;;;;;4857636;29;20045;-85
2023/09/22 08:00:34;;;;;;;5.40;2.75;;;24.20;96.40;;;;;;4853542;29;21068;-88
2023/09/22 08:03:00;;;;;;;5.38;2.92;;;24.30;96.40;;;;;;4852856;29;20052;-84
2023/09/22 08:05:27;;;;;;;10.45;3.45;;;24.40;96.30;;;;;;4860889;29;20033;-85
2023/09/22 08:07:53;;;;;;;6.07;3.17;;;24.40;96.30;;;;;;4860458;29;20034;-85
2023/09/22 08:10:22;;;;;;;5.50;2.80;;;24.40;96.20;;;;;;4861335;29;20041;-86
2023/09/22 08:12:48;;;;;;;6.78;3.33;;;24.50;96.10;;;;;;4860884;29;20057;-84
2023/09/22 08:15:14;;;;;;;9.18;3.53;;;24.60;96.10;;;;;;4860369;29;20029;-86
2023/09/22 08:17:41;;;;;;;7.68;2.97;;;24.70;96.10;;;;;;4860137;29;20454;-86
2023/09/22 08:20:11;;;;;;;9.57;3.15;;;24.70;96.00;;;;;;4847044;29;20033;-86
2023/09/22 08:22:38;;;;;;;5.00;3.10;;;24.80;96.00;;;;;;4842991;29;20034;-86
2023/09/22 08:25:08;;;;;;;5.75;2.85;;;25.00;95.60;;;;;;4850330;29;20022;-86
2023/09/22 08:27:35;;;;;;;5.70;2.50;;;25.00;95.50;;;;;;4852954;29;20026;-83
2023/09/22 08:30:11;;;;;;;9.55;2.78;;;25.20;95.60;;;;;;4860794;29;20021;-85
2023/09/22 08:32:41;;;;;;;4.50;2.72;;;25.30;95.30;;;;;;4859946;29;20042;-85
2023/09/22 08:35:11;;;;;;;5.95;2.60;;;25.40;95.30;;;;;;4859721;29;20061;-87
2023/09/22 08:37:40;;;;;;;4.00;2.78;;;25.40;95.20;;;;;;4853131;29;20037;-86
2023/09/22 08:40:17;;;;;;;7.28;2.80;;;25.40;95.00;;;;;;4859805;29;20088;-85
2023/09/22 08:42:45;;;;;;;10.35;3.15;;;25.50;94.90;;;;;;4842794;29;20034;-85
2023/09/22 08:45:12;;;;;;;6.00;2.92;;;25.50;94.90;;;;;;4842501;29;20022;-85
2023/09/22 08:47:41;;;;;;;3.42;2.15;;;25.60;94.90;;;;;;4842615;29;20034;-85
2023/09/22 08:50:11;;;;;;;9.95;2.90;;;25.70;94.90;;;;;;4842669;29;20072;-84
2023/09/22 08:52:41;;;;;;;4.57;2.40;;;25.70;94.60;;;;;;4842332;29;20037;-85
2023/09/22 08:55:10;;;;;;;6.68;2.20;;;25.70;94.50;;;;;;4842696;29;20349;-85
2023/09/22 08:57:37;;;;;;;4.90;2.20;;;25.70;94.50;;;;;;4842656;29;20090;-84
2023/09/22 09:00:12;;;;;;;4.30;2.22;;;25.70;94.40;;;;;;4847385;29;20277;-87
2023/09/22 09:02:39;;;;;;;8.07;2.40;;;25.70;94.30;;;;;;4860474;29;20033;-86
2023/09/22 09:05:23;;;;;;;7.40;2.28;;;25.60;94.00;;;;;;4860801;29;20060;-87
2023/09/22 09:07:51;;;;;;;5.93;2.28;;;25.60;94.00;;;;;;4861959;29;20645;-87
2023/09/22 09:10:35;;;;;;;5.53;2.22;;;25.60;94.10;;;;;;4864451;29;20025;-87
2023/09/22 09:13:03;;;;;;;5.05;2.13;;;25.50;93.80;;;;;;4864451;29;20061;-87
2023/09/22 09:15:39;;;;;;;4.97;1.90;;;25.50;93.80;;;;;;4864553;29;20105;-87
2023/09/22 09:18:07;;;;;;;7.82;1.80;;;25.50;93.80;;;;;;4864488;29;20044;-87
2023/09/22 09:20:34;;;;;;;6.32;1.95;;;25.60;93.80;;;;;;4864331;29;20034;-84
2023/09/22 09:23:13;;;;;;;5.53;2.53;;;25.60;93.80;;;;;;4864413;29;20029;-85
2023/09/22 09:25:47;;;;;;;6.75;1.90;;;25.60;93.80;;;;;;4864242;29;20032;-85
2023/09/22 09:28:15;;;;;;;5.35;2.03;;;25.50;93.60;;;;;;4864395;29;20474;-85
2023/09/22 09:31:07;;;;;;;3.80;1.30;;;25.50;93.60;;;;;;4863801;29;20483;-85
2023/09/22 09:33:34;;;;;;;5.25;1.73;;;25.50;93.60;;;;;;4859958;29;20057;-85
2023/09/22 09:36:13;;;;;;;5.65;1.70;;;25.40;93.70;;;;;;4863986;29;20419;-85
2023/09/22 09:38:42;;;;;;;5.00;1.85;;;25.40;93.70;;;;;;4864215;29;20068;-84
2023/09/22 09:41:09;;;;;;;9.77;2.17;;;25.40;93.80;;;;;;4863781;29;20026;-85
2023/09/22 09:43:37;;;;;;;5.60;1.92;;;25.40;94.00;;;;;;4863861;29;20340;-84
2023/09/22 09:46:02;;;;;;;4.95;1.65;;;25.50;94.10;;;;;;4864060;29;20030;-85
2023/09/22 09:48:30;;;;;;;6.30;2.42;;;25.40;94.40;;;;;;4864196;29;20088;-85
2023/09/22 09:50:59;;;;;;;10.02;2.45;;;25.40;94.60;;;;;;4863873;29;20150;-85
2023/09/22 09:53:43;;;;;;;4.33;1.80;;;25.40;94.60;;;;;;4863693;29;20104;-85
2023/09/22 09:56:13;;;;;;;4.25;1.90;;;25.40;94.70;;;;;;4863900;29;20079;-84
2023/09/22 09:58:39;;;;;;;;;;;25.40;94.90;;;;;;4864303;29;20038;-84
2023/09/22 10:01:06;;;;;;;5.93;2.45;;;25.40;94.70;;;;;;4863116;29;19919;-85
2023/09/22 10:03:33;;;;;;;6.65;2.47;;;25.30;94.70;;;;;;4863798;29;20021;-87
2023/09/22 10:06:02;;;;;;;5.50;1.75;;;25.30;94.60;;;;;;4863701;29;20470;-87
2023/09/22 10:08:28;;;;;;;6.10;2.78;;;25.20;94.40;;;;;;4863497;29;20544;-86
2023/09/22 10:10:59;;;;;;;5.95;2.63;;;25.20;94.80;;;;;;4863561;29;20437;-87
2023/09/22 10:13:26;;;;;;;6.35;2.30;;;25.20;95.20;;;;;;4863551;29;20060;-87
2023/09/22 10:15:59;;;;;;;5.57;1.90;;;25.10;95.40;;;;;;4863316;29;20522;-85
2023/09/22 10:18:50;;;;;;;5.57;2.20;;;25.10;95.40;;;;;;4862950;29;20033;-84
2023/09/22 10:21:28;;;;;;;7.05;2.60;;;25.10;95.70;;;;;;4846983;29;20128;-85
2023/09/22 10:24:14;;;;;;;5.22;2.08;;;25.10;95.70;;;;;;4863492;29;20105;-85
2023/09/22 10:27:11;;;;;;;5.30;2.00;;;25.10;95.70;;;;;;4847200;29;20053;-85
2023/09/22 10:29:51;;;;;;;3.40;1.90;;;25.20;95.70;;;;;;4845513;29;20041;-85
2023/09/22 10:34:49;;;;;;;8.68;3.20;;;25.20;96.10;;;;;;4856726;29;20476;-85
2023/09/22 10:37:37;;;;;;;3.25;2.20;;;25.20;96.30;;;;;;4860757;29;20040;-85
2023/09/22 10:40:15;;;;;;;8.07;2.70;;;25.10;96.50;;;;;;4860766;29;20026;-85
2023/09/22 10:42:46;;;;;;;4.93;2.42;;;25.10;96.50;;;;;;4855643;29;20030;-74
2023/09/22 10:45:13;;;;;;;8.18;2.60;;;25.10;96.60;;;;;;4860984;29;20033;-74
2023/09/22 10:47:40;;;;;;;6.40;2.60;;;25.20;96.80;;;;;;4860932;29;20041;-75
2023/09/22 10:50:24;;;;;;;7.18;2.70;;;25.10;96.90;;;;;;4853320;29;20375;-75
2023/09/22 10:53:02;;;;;;;6.28;2.80;;;25.20;97.00;;;;;;4854557;29;20066;-75
2023/09/22 10:55:31;;;;;;;10.95;3.47;;;25.10;97.10;;;;;;4844511;29;20056;-75
2023/09/22 10:57:58;;;;;;;4.72;2.60;;;25.00;97.20;;;;;;4857951;29;20037;-74
2023/09/22 11:00:24;;;;;;;7.28;3.38;;;24.90;97.30;;;;;;4862866;29;20029;-74
2023/09/22 11:02:50;;;;;;;4.40;2.83;;;24.80;97.60;;;;;;4861279;29;20327;-75
2023/09/22 11:05:17;;;;;;;7.03;3.55;;;24.80;97.60;;;;;;4858608;29;20033;-77
2023/09/22 11:07:43;;;;;;;9.07;4.32;;;24.80;97.80;;;;;;4858310;29;20093;-77
2023/09/22 11:10:17;;;;;;;8.88;3.90;;;24.80;97.90;;;;;;4845526;29;20029;-77
2023/09/22 11:12:50;;;;;;;6.68;2.60;;;24.80;97.90;;;;;;4859144;29;20057;-77
2023/09/22 11:15:16;;;;;;;6.47;2.60;;;24.70;98.00;;;;;;4862274;29;20064;-77
2023/09/22 11:17:46;;;;;;;4.82;2.40;;;24.70;97.80;;;;;;4859495;29;20060;-76
2023/09/22 11:20:22;;;;;;;3.83;2.20;;;24.80;97.80;;;;;;4861500;29;20033;-77
2023/09/22 11:22:50;;;;;;;7.13;2.80;;;24.80;97.90;;;;;;4859124;29;20044;-77
2023/09/22 11:37:55;;;;;;;4.97;3.20;;;24.80;97.90;;;;;;6104219;22;1457419;-82
2023/09/22 11:40:22;;;;;;;12.45;4.90;;;25.40;97.50;;;;;;6163197;23;20052;-82
2023/09/22 11:42:48;;;;;;;7.82;2.90;;;25.30;97.60;;;;;;6163392;23;20498;-82
2023/09/22 11:45:24;;;;;;;3.60;2.20;;;25.20;97.70;;;;;;6163931;23;20505;-82
2023/09/22 11:48:05;;;;;;;5.85;3.20;;;25.20;97.80;;;;;;6163839;23;20025;-82
2023/09/22 11:50:31;;;;;;;12.32;4.63;;;25.20;97.90;;;;;;6162700;23;19997;-82
2023/09/22 11:53:17;;;;;;;10.38;4.40;;;25.10;97.80;;;;;;6162681;23;20023;-82
2023/09/22 11:55:45;;;;;;;6.43;4.13;;;25.00;98.00;;;;;;6162703;23;20005;-82
2023/09/22 11:58:12;;;;;;;20.58;5.50;;;24.90;97.90;;;;;;6163097;23;20024;-82
2023/09/22 12:00:38;;;;;;;6.53;3.65;;;24.80;98.10;;;;;;6136105;23;20005;-82
2023/09/22 12:03:04;;;;;;;11.00;4.10;;;24.80;98.30;;;;;;6162043;23;20006;-82
2023/09/22 12:05:31;;;;;;;6.00;2.90;;;24.80;98.40;;;;;;6135531;23;20005;-82
2023/09/22 12:07:56;;;;;;;6.20;3.65;;;24.80;98.50;;;;;;6162485;23;20055;-82
2023/09/22 12:10:22;;;;;;;7.47;3.40;;;24.80;98.40;;;;;;6162393;23;20068;-82
2023/09/22 12:12:48;;;;;;;6.28;3.13;;;24.80;98.40;;;;;;6163044;23;19998;-82
2023/09/22 12:15:14;;;;;;;11.25;3.63;;;24.80;98.40;;;;;;6160798;23;20376;-82
2023/09/22 12:17:40;;;;;;;4.85;2.83;;;24.80;98.70;;;;;;6159332;23;20379;-82
2023/09/22 12:20:06;;;;;;;5.88;3.28;;;24.90;98.50;;;;;;6160958;23;20068;-82
2023/09/22 12:22:32;;;;;;;5.55;3.42;;;24.90;98.40;;;;;;6162423;23;20024;-81
2023/09/22 12:24:57;;;;;;;6.80;3.47;;;25.00;98.50;;;;;;6161856;23;20001;-82
2023/09/22 12:27:23;;;;;;;9.18;3.83;;;25.00;98.40;;;;;;6161264;23;20005;-81
2023/09/22 12:29:49;;;;;;;7.00;4.00;;;25.00;98.40;;;;;;6161959;23;20361;-82
2023/09/22 12:32:15;;;;;;;10.38;4.90;;;25.00;98.40;;;;;;6160829;23;20426;-81
2023/09/22 12:34:40;;;;;;;7.45;3.30;;;24.90;98.60;;;;;;6162254;23;20013;-82
2023/09/22 12:37:06;;;;;;;7.15;3.45;;;24.90;98.60;;;;;;6113766;23;20021;-82
2023/09/22 12:39:32;;;;;;;6.00;3.30;;;24.90;98.60;;;;;;6126996;23;20024;-81
2023/09/22 12:41:57;;;;;;;5.18;2.83;;;24.90;98.50;;;;;;6126310;23;20060;-81
2023/09/22 12:44:23;;;;;;;6.55;3.22;;;24.90;98.50;;;;;;6126180;23;20056;-80
2023/09/22 12:46:50;;;;;;;8.40;3.92;;;24.90;98.50;;;;;;6100007;23;20455;-79
2023/09/22 12:49:16;;;;;;;9.43;4.40;;;24.90;98.50;;;;;;6126510;23;19998;-79
2023/09/22 12:51:42;;;;;;;4.25;2.72;;;24.90;98.60;;;;;;6126525;23;20034;-80
2023/09/22 12:54:08;;;;;;;6.95;3.42;;;24.90;98.70;;;;;;6126089;23;20318;-79
2023/09/22 12:56:34;;;;;;;7.15;3.63;;;24.90;98.70;;;;;;6126337;23;20077;-79
2023/09/22 12:58:59;;;;;;;10.52;3.38;;;24.90;98.80;;;;;;6126372;23;20484;-79
2023/09/22 13:01:25;;;;;;;7.15;3.13;;;24.90;98.70;;;;;;6125525;23;20060;-79
2023/09/22 13:03:51;;;;;;;9.32;4.03;;;24.90;98.90;;;;;;6124962;23;20368;-79
2023/09/22 13:06:17;;;;;;;11.52;4.53;;;25.00;98.80;;;;;;6125229;23;20008;-79